Latest Weather Observations for Urandangi

IDQ60801

Issued at 8:35 am EST Tuesday 25 November 2014 (issued every 30 minutes, with the page automatically refreshed every 10 minutes)

About weather observations | Map of weather stations | Latest weather observations for QLD | Other Formats
Station Details ID: 037058 Name: URANDANGI AERODROME Lat: -21.60 Lon: 138.37 Height: 178.6 m
Data from the previous 72 hours. | See also: Recent months at Urandangi
Date/Time
EST
Temp
°C
App
Temp
°C
Dew
Point
Rel
Hum
%
Delta-T
°C
Wind Press
QNH
hPa
Press
MSL
hPa
Rain
since 9 am
mm
Dir
 
Spd
km/h
Gust
km/h
Spd
kts
Gust
kts
25/08:30am 28.9 28.3 18.9 54 6.5 SSE 20 24 11 13 1012.1 1010.9 4.8
25/08:00am 28.4 28.5 19.1 57 6.1 SSW 17 24 9 13 1012.1 1010.9 4.8
25/07:30am 27.5 29.4 19.8 63 5.0 SSE 9 13 5 7 1011.7 1010.6 4.8
25/07:00am 26.6 29.3 20.2 68 4.2 SSE 6 7 3 4 1011.4 1010.3 4.8
25/06:30am 26.3 27.9 19.9 68 4.2 SSE 11 13 6 7 1011.1 1010.0 4.8
25/06:00am 25.6 27.8 20.4 73 3.4 SSE 9 9 5 5 1010.6 1009.4 4.8
25/05:30am 25.7 28.3 20.5 73 3.4 SSE 7 7 4 4 1010.0 1008.8 4.8
25/05:00am 25.8 29.1 20.8 74 3.3 SSE 4 4 2 2 1009.5 1008.3 4.8
25/04:30am 25.8 30.3 21.5 77 2.9 CALM 0 0 0 0 1009.4 1008.2 4.8
25/04:00am 25.7 28.7 20.9 75 3.2 SSE 6 6 3 3 1009.3 1008.1 4.8
25/03:30am 25.8 28.7 21.0 75 3.2 SSE 7 9 4 5 1009.1 1007.9 4.8
25/03:00am 25.2 29.3 21.5 80 2.5 SSE 2 4 1 2 1008.8 1007.6 4.8
25/02:30am 25.5 29.4 21.2 77 2.9 SSE 2 4 1 2 1008.8 1007.6 4.8
25/02:00am 25.6 28.5 20.6 74 3.3 SSE 6 7 3 4 1009.1 1007.9 4.8
25/01:30am 25.6 28.5 21.1 76 3.0 SE 7 11 4 6 1009.6 1008.4 4.8
25/01:00am 25.7 28.5 21.6 78 2.7 SE 9 11 5 6 1010.1 1008.9 4.8
25/12:30am 25.6 28.6 21.3 77 2.9 SE 7 11 4 6 1010.4 1009.2 4.8
25/12:00am 26.1 30.4 21.1 74 3.3 CALM 0 0 0 0 1010.9 1009.7 4.8
 
Date/Time
EST
Temp
°C
App
Temp
°C
Dew
Point
Rel
Hum
%
Delta-T
°C
Wind Press
QNH
hPa
Press
MSL
hPa
Rain
since 9 am
mm
Dir
 
Spd
km/h
Gust
km/h
Spd
kts
Gust
kts
24/11:30pm 26.8 29.5 20.2 67 4.3 ENE 6 9 3 5 1010.8 1009.6 4.8
24/11:00pm 27.7 28.7 20.3 64 4.9 ENE 15 20 8 11 1010.9 1009.7 4.8
24/10:30pm 27.4 28.1 20.5 66 4.6 ENE 17 26 9 14 1011.0 1009.8 4.8
24/10:00pm 27.3 27.7 20.9 68 4.3 NE 20 28 11 15 1010.6 1009.4 4.8
24/09:30pm 29.0 29.9 19.3 55 6.3 ESE 13 17 7 9 1010.5 1009.3 3.8
24/09:00pm 30.2 31.6 18.6 49 7.5 ENE 9 15 5 8 1009.8 1008.6 3.8
24/08:30pm 29.1 30.2 18.8 53 6.7 E 11 17 6 9 1009.6 1008.4 3.8
24/08:00pm 29.8 28.8 18.9 52 7.1 E 22 30 12 16 1009.2 1008.0 3.8
24/07:30pm 30.5 27.9 18.6 49 7.7 SE 30 39 16 21 1009.2 1008.0 3.8
24/07:25pm 30.5 27.5 18.6 49 7.7 SE 32 39 17 21 1009.1 1007.9 3.8
24/07:11pm 32.2 26.4 18.4 44 9.0 SSE 46 59 25 32 1008.4 1007.2 3.8
24/07:00pm 31.9 35.4 21.1 52 7.3 NNW 4 6 2 3 1008.4 1007.2 3.8
24/06:30pm 33.1 35.1 19.9 45 8.8 NNW 9 13 5 7 1007.7 1006.5 3.8
24/06:00pm 33.8 35.4 19.1 42 9.7 NNW 9 11 5 6 1007.7 1006.5 3.8
24/05:30pm 33.5 35.9 19.6 44 9.2 WNW 6 7 3 4 1007.5 1006.3 3.8
24/05:00pm 33.7 35.8 19.4 43 9.5 WNW 7 13 4 7 1007.5 1006.3 3.8
24/04:30pm 32.6 33.8 19.8 46 8.5 NW 13 20 7 11 1007.2 1006.0 3.8
24/04:00pm 32.3 33.9 19.9 48 8.3 NW 11 15 6 8 1007.6 1006.4 3.8
24/03:30pm 31.4 32.1 20.4 52 7.4 N 17 22 9 12 1007.6 1006.4 3.8
24/03:00pm 30.4 30.7 20.3 54 6.7 N 19 26 10 14 1008.0 1006.8 3.8
24/02:30pm 29.2 29.0 21.2 62 5.4 N 24 33 13 18 1008.5 1007.3 3.8
24/02:00pm 29.3 28.2 21.0 61 5.6 NE 28 35 15 19 1009.4 1008.2 3.8
24/01:44pm 30.8 29.1 19.8 52 7.3 NNE 28 41 15 22 1009.7 1008.5 3.8
24/01:30pm 29.8 32.9 23.5 69 4.4 NNE 13 19 7 10 1009.8 1008.6 3.8
24/01:00pm 29.0 29.5 21.2 62 5.2 WNW 20 32 11 17 1009.4 1008.2 3.8
24/12:48pm 29.6 28.1 20.2 57 6.2 WNW 28 52 15 28 1009.8 1008.6 3.0
24/12:45pm 29.8 29.4 18.9 52 7.1 WNW 19 24 10 13 1009.8 1008.6 3.0
24/12:30pm 29.0 24.8 19.0 54 6.5 SSE 39 65 21 35 1009.3 1008.1 2.0
24/12:23pm 30.2 22.3 18.3 49 7.7 SW 57 102 31 55 1008.5 1007.3 0.4
24/12:00pm 39.3 38.4 13.7 22 16.0 W 11 26 6 14 1009.1 1007.9 0.0
24/11:30am 39.9 38.5 13.4 21 16.5 WNW 13 24 7 13 1009.5 1008.3 0.0
24/11:00am 39.1 38.2 14.8 23 15.4 W 13 24 7 13 1009.9 1008.7 0.0
24/10:30am 39.0 37.5 15.4 25 15.1 WNW 17 26 9 14 1010.1 1008.9 0.0
24/10:00am 38.1 37.6 15.8 26 14.3 NW 13 24 7 13 1010.4 1009.2 0.0
24/09:30am 36.5 35.5 16.6 30 12.8 NW 17 24 9 13 1010.4 1009.2 0.0
24/09:00am 36.0 35.2 17.2 33 12.2 WNW 17 24 9 13 1010.4 1009.2 0.0
24/08:30am 34.8 33.4 17.1 35 11.4 WNW 20 28 11 15 1010.3 1009.1 0.0
24/08:00am 33.8 32.4 17.1 37 10.8 NW 20 28 11 15 1010.1 1008.9 0.0
24/07:30am 32.7 32.5 17.7 40 9.7 NW 15 24 8 13 1009.8 1008.6 0.0
24/07:00am 31.2 31.6 18.2 46 8.4 NW 13 19 7 10 1009.4 1008.2 0.0
24/06:30am 30.0 30.8 18.1 49 7.7 NNW 11 13 6 7 1008.9 1007.7 0.0
24/06:00am 29.7 30.5 18.2 50 7.4 N 11 15 6 8 1008.9 1007.7 0.0
24/05:30am 29.6 29.5 17.8 49 7.6 NNW 15 19 8 10 1008.9 1007.7 0.0
24/05:00am 29.4 29.3 16.9 47 7.9 N 13 17 7 9 1009.3 1008.1 0.0
24/04:30am 29.9 29.3 16.7 45 8.3 N 15 20 8 11 1009.3 1008.1 0.0
24/04:00am 29.7 28.8 16.8 45 8.2 NNE 17 22 9 12 1009.4 1008.2 0.0
24/03:30am 29.8 28.5 17.3 47 8.0 NE 20 28 11 15 1009.5 1008.3 0.0
24/03:00am 30.5 29.5 17.6 46 8.3 NE 19 26 10 14 1009.7 1008.5 0.0
24/02:30am 30.6 30.1 17.7 46 8.3 NE 17 22 9 12 1009.7 1008.5 0.0
24/02:00am 30.6 30.2 18.0 47 8.1 NE 17 22 9 12 1009.6 1008.4 0.0
24/01:30am 31.0 29.6 17.0 43 8.9 ENE 20 30 11 16 1009.6 1008.4 0.0
24/01:00am 31.1 28.1 16.7 42 9.1 E 28 37 15 20 1009.9 1008.7 0.0
24/12:30am 31.9 29.7 17.0 41 9.5 ESE 24 37 13 20 1009.9 1008.7 0.0
24/12:00am 34.7 30.3 14.0 28 12.8 NE 30 41 16 22 1009.2 1008.0 0.0
 
Date/Time
EST
Temp
°C
App
Temp
°C
Dew
Point
Rel
Hum
%
Delta-T
°C
Wind Press
QNH
hPa
Press
MSL
hPa
Rain
since 9 am
mm
Dir
 
Spd
km/h
Gust
km/h
Spd
kts
Gust
kts
23/11:45pm 36.0 30.8 12.9 25 14.1 NNE 32 41 17 22 1009.2 1008.0 0.0
23/11:30pm 36.3 34.8 11.9 23 14.7 NNE 11 15 6 8 1009.1 1007.9 0.0
23/11:00pm 35.7 34.2 10.7 22 14.8 N 9 13 5 7 1009.2 1008.0 0.0
23/10:30pm 35.6 34.3 11.3 23 14.5 N 9 13 5 7 1008.9 1007.7 0.0
23/10:00pm 36.0 34.8 11.6 23 14.6 NNE 9 11 5 6 1008.7 1007.5 0.0
23/09:30pm 35.9 34.5 10.9 22 14.8 NE 9 9 5 5 1008.4 1007.2 0.0
23/09:00pm 36.1 35.1 11.0 22 14.9 NE 7 9 4 5 1008.2 1007.0 0.0
23/08:30pm 36.5 35.0 10.6 21 15.3 NE 9 11 5 6 1007.8 1006.6 0.0
23/08:00pm 37.9 36.9 11.1 20 16.1 NNE 7 9 4 5 1007.3 1006.1 0.0
23/07:30pm 39.0 37.2 12.0 20 16.4 NNE 13 17 7 9 1006.9 1005.7 0.0
23/07:00pm 39.6 38.4 11.7 19 17.0 NNE 9 17 5 9 1006.6 1005.4 0.0
23/06:30pm 40.2 38.9 11.3 18 17.5 NNE 9 15 5 8 1006.4 1005.2 0.0
23/06:00pm 40.3 38.7 11.4 18 17.6 NE 11 20 6 11 1006.3 1005.1 0.0
23/05:30pm 41.0 39.9 12.0 18 17.8 N 9 20 5 11 1006.2 1005.0 0.0
23/05:00pm 41.9 41.1 11.8 17 18.5 NNE 7 13 4 7 1006.2 1005.0 0.0
23/04:30pm 40.6 39.4 11.7 18 17.6 ENE 9 22 5 12 1006.4 1005.2 0.0
23/04:00pm 41.4 40.4 12.3 18 18.0 NNE 9 22 5 12 1006.5 1005.3 0.0
23/03:30pm 41.6 39.0 10.7 16 18.7 N 15 24 8 13 1007.0 1005.8 0.0
23/03:00pm 41.8 40.6 11.7 17 18.5 WNW 9 15 5 8 1007.5 1006.3 0.0
23/02:30pm 40.5 39.3 11.6 18 17.6 NNE 9 17 5 9 1008.2 1007.0 0.0
23/02:00pm 40.7 39.4 12.6 19 17.4 NNE 11 20 6 11 1008.8 1007.6 0.0
23/01:30pm 39.8 38.9 12.6 20 16.8 NE 9 19 5 10 1009.3 1008.1 0.0
23/01:00pm 39.8 39.3 12.6 20 16.8 N 7 15 4 8 1009.8 1008.6 0.0
23/12:30pm 39.0 37.8 12.7 21 16.2 NE 11 22 6 12 1010.5 1009.3 0.0
23/12:00pm 38.4 37.8 12.2 21 16.0 NNE 7 15 4 8 1011.2 1010.1 0.0
23/11:30am 37.5 37.0 12.2 22 15.4 NW 6 13 3 7 1011.6 1010.5 0.0
23/11:00am 38.0 37.7 13.3 23 15.3 E 7 20 4 11 1012.1 1010.9 0.0
23/10:30am 36.7 36.2 12.8 24 14.6 NE 7 15 4 8 1012.3 1011.1 0.0
23/10:00am 36.0 35.2 14.1 27 13.6 E 11 19 6 10 1012.6 1011.4 0.0
23/09:30am 35.3 35.6 14.6 29 12.9 NE 6 11 3 6 1012.7 1011.5 0.0
23/09:00am 34.4 34.4 14.3 30 12.5 NE 7 11 4 6 1012.5 1011.3 0.0
23/08:30am 34.0 34.1 14.5 31 12.1 NNE 7 9 4 5 1012.4 1011.2 0.0
23/08:00am 33.3 34.7 14.4 32 11.7 CALM 0 4 0 2 1011.8 1010.7 0.0
23/07:30am 32.4 33.5 14.5 33 11.0 N 2 4 1 2 1011.6 1010.5 0.0
23/07:00am 30.3 31.4 13.6 36 10.1 CALM 0 0 0 0 1011.4 1010.3 0.0
23/06:30am 28.3 29.0 12.2 37 9.4 CALM 0 0 0 0 1011.0 1009.8 0.0
23/06:00am 27.3 27.7 11.3 37 9.2 CALM 0 0 0 0 1010.8 1009.6 0.0
23/05:30am 27.1 27.7 12.0 39 8.8 CALM 0 0 0 0 1010.2 1009.0 0.0
23/05:00am 28.4 28.5 12.7 38 9.3 N 4 4 2 2 1010.2 1009.0 0.0
23/04:30am 29.3 29.5 13.1 37 9.7 N 4 6 2 3 1010.5 1009.3 0.0
23/04:00am 30.3 29.9 14.0 37 9.9 N 9 9 5 5 1010.6 1009.4 0.0
23/03:30am 30.7 30.2 13.9 36 10.2 N 9 11 5 6 1010.1 1008.9 0.0
23/03:00am 30.2 30.0 13.5 36 10.1 N 7 7 4 4 1010.1 1008.9 0.0
23/02:30am 30.0 29.9 13.3 36 10.0 N 6 6 3 3 1010.0 1008.8 0.0
23/02:00am 30.0 30.2 12.9 35 10.2 NW 4 6 2 3 1010.1 1008.9 0.0
23/01:30am 30.2 30.4 13.0 34 10.3 E 4 4 2 2 1010.3 1009.1 0.0
23/01:00am 30.0 29.8 12.9 35 10.2 E 6 7 3 4 1009.9 1008.7 0.0
23/12:30am 30.3 31.1 12.7 34 10.5 CALM 0 0 0 0 1010.3 1009.1 0.0
23/12:00am 30.6 30.6 12.5 33 10.8 E 4 7 2 4 1010.6 1009.4 0.0
 
Date/Time
EST
Temp
°C
App
Temp
°C
Dew
Point
Rel
Hum
%
Delta-T
°C
Wind Press
QNH
hPa
Press
MSL
hPa
Rain
since 9 am
mm
Dir
 
Spd
km/h
Gust
km/h
Spd
kts
Gust
kts
22/11:30pm 30.9 30.4 12.8 33 10.8 E 7 9 4 5 1011.0 1009.8 0.0
22/11:00pm 30.5 30.5 12.4 33 10.7 W 4 4 2 2 1011.2 1010.1 0.0
22/10:30pm 30.4 30.0 12.3 33 10.7 W 6 7 3 4 1011.1 1010.0 0.0
22/10:00pm 29.9 29.0 10.5 30 11.1 WSW 6 7 3 4 1010.7 1009.5 0.0
22/09:30pm 30.6 31.0 11.1 30 11.3 CALM 0 0 0 0 1010.6 1009.4 0.0
22/09:00pm 31.8 31.7 12.1 30 11.7 WSW 4 4 2 2 1010.5 1009.3 0.0
22/08:30pm 32.4 32.1 12.6 30 11.9 WSW 6 6 3 3 1010.1 1008.9 0.0
22/08:00pm 33.0 33.1 12.6 29 12.3 WSW 4 4 2 2 1009.8 1008.6 0.0
22/07:30pm 33.8 33.5 12.7 27 12.7 WSW 6 7 3 4 1009.5 1008.3 0.0
22/07:00pm 35.1 34.4 13.3 27 13.4 WSW 9 17 5 9 1009.2 1008.0 0.0
22/06:30pm 35.5 34.8 13.1 26 13.7 W 9 13 5 7 1008.9 1007.7 0.0
22/06:00pm 35.7 34.2 13.2 26 13.8 WSW 13 19 7 10 1009.1 1007.9 0.0
22/05:30pm 36.2 34.5 13.6 25 13.9 SW 15 22 8 12 1008.8 1007.6 0.0
22/05:00pm 36.3 33.7 13.7 25 14.0 WSW 20 28 11 15 1008.9 1007.7 0.0
22/04:30pm 36.6 33.7 14.0 26 14.0 WSW 22 32 12 17 1009.2 1008.0 0.0
22/04:00pm 37.2 33.1 13.9 25 14.5 W 28 39 15 21 1009.2 1008.0 0.0
22/03:30pm 37.3 33.8 14.6 26 14.3 W 26 35 14 19 1009.4 1008.2 0.0
22/03:00pm 37.6 34.8 15.4 27 14.1 W 24 41 13 22 1009.4 1008.2 0.0
22/02:30pm 38.1 35.8 14.6 24 14.8 W 20 33 11 18 1009.5 1008.3 0.0
22/02:00pm 37.8 35.0 13.1 23 15.2 W 20 39 11 21 1009.8 1008.6 0.0
22/01:30pm 38.6 35.2 13.8 23 15.5 W 24 37 13 20 1010.1 1008.9 0.0
22/01:00pm 39.3 35.4 14.3 22 15.8 WNW 28 44 15 24 1010.6 1009.4 0.0
22/12:30pm 38.0 34.1 14.5 24 14.8 WNW 28 41 15 22 1010.8 1009.6 0.0
22/12:00pm 38.0 33.4 14.5 24 14.8 W 32 46 17 25 1011.1 1010.0 0.0
22/11:30am 36.8 31.7 14.7 26 13.9 WNW 35 50 19 27 1011.4 1010.3 0.0
22/11:00am 37.0 32.7 15.5 28 13.7 WNW 32 46 17 25 1011.4 1010.3 0.0
22/10:30am 37.4 32.8 14.7 26 14.3 WNW 32 41 17 22 1011.6 1010.5 0.0
22/10:00am 36.8 33.0 14.7 26 13.9 NW 28 41 15 22 1011.7 1010.6 0.0
22/09:30am 35.8 31.7 15.0 29 13.1 NW 30 41 16 22 1011.6 1010.5 0.0
22/09:00am 33.8 31.3 16.2 35 11.2 NW 24 33 13 18 1011.8 1010.7 0.0

Other Formats:

Comma delimited format used in spreadsheet applications
http://www.bom.gov.au/fwo/IDQ60801/IDQ60801.94344.axf

JavaScript Object Notation format (JSON) in row-major order
http://www.bom.gov.au/fwo/IDQ60801/IDQ60801.94344.json